createdAt,value
2017-10-15T00:02:04.968Z,22.53
2017-10-15T00:04:34.724Z,22.43
2017-10-15T00:07:03.771Z,22.07
2017-10-15T00:09:33.937Z,22.83
2017-10-15T00:12:03.581Z,22.30
2017-10-15T00:14:32.962Z,28.97
2017-10-15T00:17:02.393Z,26.57
2017-10-15T00:19:32.145Z,24.07
2017-10-15T00:22:01.565Z,21.93
2017-10-15T00:24:31.703Z,24.10
2017-10-15T00:27:01.507Z,21.53
2017-10-15T00:29:30.881Z,26.20
2017-10-15T00:32:00.270Z,25.20
2017-10-15T00:34:30.065Z,23.77
2017-10-15T00:36:59.460Z,21.73
2017-10-15T00:39:28.861Z,23.20
2017-10-15T00:41:58.518Z,22.37
2017-10-15T00:44:27.553Z,21.47
2017-10-15T00:46:57.725Z,20.07
2017-10-15T00:49:27.461Z,20.80
2017-10-15T00:51:56.884Z,20.97
2017-10-15T00:54:26.282Z,21.03
2017-10-15T00:56:55.114Z,22.07
2017-10-15T00:59:23.821Z,21.17
2017-10-15T01:01:53.049Z,19.63
2017-10-15T01:04:23.046Z,21.23
2017-10-15T01:06:52.446Z,19.67
2017-10-15T01:09:21.477Z,18.20
2017-10-15T01:11:52.419Z,17.80
2017-10-15T01:14:21.808Z,17.93
2017-10-15T01:16:51.188Z,19.37
2017-10-15T01:19:21.284Z,20.97
2017-10-15T01:21:49.782Z,20.40
2017-10-15T01:24:18.480Z,18.90
2017-10-15T01:26:47.566Z,20.73
2017-10-15T01:29:16.385Z,20.40
2017-10-15T01:31:45.020Z,20.30
2017-10-15T01:34:14.909Z,26.53
2017-10-15T01:36:43.389Z,31.53
2017-10-15T01:39:12.079Z,33.13
2017-10-15T01:41:41.394Z,29.37
2017-10-15T01:44:10.096Z,43.13
2017-10-15T01:46:38.600Z,33.63
2017-10-15T01:49:07.418Z,40.67
2017-10-15T01:51:36.131Z,38.23
2017-10-15T01:54:05.389Z,47.03
2017-10-15T01:56:34.921Z,46.07
2017-10-15T01:59:04.314Z,49.37
2017-10-15T02:01:33.693Z,48.53
2017-10-15T02:04:03.467Z,42.93
2017-10-15T02:06:32.510Z,44.03
2017-10-15T02:09:02.697Z,39.03
2017-10-15T02:11:34.065Z,45.57
2017-10-15T02:14:03.253Z,30.30
2017-10-15T02:16:31.949Z,31.40
2017-10-15T02:19:01.698Z,39.23
2017-10-15T02:21:31.082Z,54.57
2017-10-15T02:24:00.488Z,51.13
2017-10-15T02:26:30.254Z,58.60
2017-10-15T02:28:59.655Z,53.37
2017-10-15T02:31:29.046Z,52.90
2017-10-15T02:33:59.232Z,50.93
2017-10-15T02:36:28.417Z,54.57
2017-10-15T02:38:57.817Z,50.77
2017-10-15T02:41:27.153Z,46.73
2017-10-15T02:43:56.415Z,48.43
2017-10-15T02:46:26.390Z,55.47
2017-10-15T02:48:55.928Z,50.13
2017-10-15T02:51:25.306Z,51.80
2017-10-15T02:53:54.704Z,42.73
2017-10-15T02:56:24.469Z,51.67
2017-10-15T02:58:53.854Z,54.97
2017-10-15T03:01:23.266Z,46.43
2017-10-15T03:03:53.242Z,40.23
2017-10-15T03:06:22.651Z,55.23
2017-10-15T03:08:52.045Z,44.03
2017-10-15T03:11:22.251Z,40.07
2017-10-15T03:13:52.407Z,44.27
2017-10-15T03:16:21.625Z,40.37
2017-10-15T03:18:51.557Z,35.37
2017-10-15T03:21:20.953Z,30.67
2017-10-15T03:23:50.345Z,27.07
2017-10-15T03:26:20.781Z,26.93
2017-10-15T03:28:50.202Z,27.57
2017-10-15T03:31:19.589Z,27.60
2017-10-15T03:33:49.693Z,30.77
2017-10-15T03:36:20.044Z,26.67
2017-10-15T03:38:49.439Z,38.17
2017-10-15T03:41:19.474Z,36.03
2017-10-15T03:43:48.861Z,33.20
2017-10-15T03:46:18.245Z,32.57
2017-10-15T03:48:48.737Z,26.23
2017-10-15T03:51:18.121Z,25.43
2017-10-15T03:53:47.512Z,29.20
2017-10-15T03:56:18.002Z,32.07
2017-10-15T03:58:47.254Z,40.93
2017-10-15T04:01:16.435Z,52.53
2017-10-15T04:03:46.262Z,50.50
2017-10-15T04:06:15.616Z,57.93
2017-10-15T04:08:45.290Z,50.73
2017-10-15T04:11:15.020Z,55.57
2017-10-15T04:13:44.226Z,50.60
2017-10-15T04:16:13.422Z,51.27
2017-10-15T04:18:42.959Z,44.70
2017-10-15T04:21:12.157Z,51.10
2017-10-15T04:23:41.364Z,51.70
2017-10-15T04:26:11.104Z,47.17
2017-10-15T04:28:40.507Z,46.43
2017-10-15T04:31:09.901Z,33.10
2017-10-15T04:33:39.944Z,30.17
2017-10-15T04:36:09.338Z,33.30
2017-10-15T04:38:38.757Z,45.67
2017-10-15T04:41:08.325Z,38.93
2017-10-15T04:43:37.700Z,39.30
2017-10-15T04:46:07.101Z,31.63
2017-10-15T04:48:36.826Z,27.23
2017-10-15T04:51:06.251Z,32.70
2017-10-15T04:53:35.645Z,29.77
2017-10-15T04:56:05.600Z,32.47
2017-10-15T04:58:35.349Z,33.30
2017-10-15T05:01:04.749Z,29.30
2017-10-15T05:03:34.779Z,33.87
2017-10-15T05:06:03.620Z,27.63
2017-10-15T05:08:33.143Z,27.80
2017-10-15T05:11:03.634Z,24.53
2017-10-15T05:13:32.844Z,22.97
2017-10-15T05:16:03.270Z,22.37
2017-10-15T05:18:32.806Z,22.87
2017-10-15T05:21:02.121Z,19.10
2017-10-15T05:23:31.480Z,19.23
2017-10-15T05:26:01.245Z,22.00
2017-10-15T05:28:30.766Z,29.57
2017-10-15T05:31:00.154Z,38.30
2017-10-15T05:33:30.107Z,38.57
2017-10-15T05:35:59.493Z,39.40
2017-10-15T05:38:30.666Z,39.83
2017-10-15T05:41:00.397Z,41.23
2017-10-15T05:43:29.782Z,39.83
2017-10-15T05:45:59.176Z,44.20
2017-10-15T05:48:29.684Z,43.93
2017-10-15T05:50:59.061Z,45.93
2017-10-15T05:53:28.269Z,48.17
2017-10-15T05:55:58.032Z,43.33
2017-10-15T05:58:27.418Z,41.23
2017-10-15T06:00:57.842Z,45.87
2017-10-15T06:03:28.006Z,45.70
2017-10-15T06:05:56.861Z,45.73
2017-10-15T06:08:26.252Z,42.67
2017-10-15T06:10:56.875Z,38.63
2017-10-15T06:13:26.154Z,35.80
2017-10-15T06:15:55.538Z,35.10
2017-10-15T06:18:25.708Z,32.73
2017-10-15T06:20:54.750Z,34.10
2017-10-15T06:23:24.149Z,34.20
2017-10-15T06:25:53.961Z,34.93
2017-10-15T06:28:23.157Z,32.90
2017-10-15T06:30:52.572Z,34.80
2017-10-15T06:33:22.633Z,33.83
2017-10-15T06:35:52.022Z,29.07
2017-10-15T06:38:21.425Z,32.03
2017-10-15T06:40:51.170Z,33.53
2017-10-15T06:43:20.565Z,30.53
2017-10-15T06:45:49.970Z,27.67
2017-10-15T06:48:19.741Z,26.33
2017-10-15T06:50:49.121Z,30.93
2017-10-15T06:53:18.527Z,33.10
2017-10-15T06:55:48.214Z,33.17
2017-10-15T06:58:18.373Z,30.87
2017-10-15T07:00:49.570Z,29.23
2017-10-15T07:03:18.961Z,30.80
2017-10-15T07:05:48.355Z,27.80
2017-10-15T07:08:19.130Z,26.00
2017-10-15T07:10:48.510Z,26.13
2017-10-15T07:13:18.677Z,25.30
2017-10-15T07:15:48.823Z,24.97
2017-10-15T07:18:18.219Z,23.70
2017-10-15T07:20:47.595Z,23.33
2017-10-15T07:23:18.087Z,23.73
2017-10-15T07:25:47.494Z,23.20
2017-10-15T07:28:16.877Z,24.03
2017-10-15T07:30:47.685Z,21.50
2017-10-15T07:33:17.074Z,20.93
2017-10-15T07:35:46.468Z,22.13
2017-10-15T07:38:16.226Z,20.97
2017-10-15T07:40:45.630Z,20.27
2017-10-15T07:43:15.007Z,19.50
2017-10-15T07:45:45.494Z,18.93
2017-10-15T07:48:14.881Z,20.13
2017-10-15T07:50:44.266Z,19.17
2017-10-15T07:53:14.766Z,19.27
2017-10-15T07:55:44.162Z,18.67
2017-10-15T07:58:13.549Z,19.40
2017-10-15T08:00:43.228Z,19.03
2017-10-15T08:03:12.606Z,18.03
2017-10-15T08:05:41.800Z,17.87
2017-10-15T08:08:11.570Z,17.03
2017-10-15T08:10:40.963Z,17.67
2017-10-15T08:13:10.352Z,16.67
2017-10-15T08:15:40.110Z,16.77
2017-10-15T08:18:09.509Z,16.63
2017-10-15T08:20:38.903Z,15.60
2017-10-15T08:23:08.686Z,15.23
2017-10-15T08:25:38.812Z,14.83
2017-10-15T08:28:08.523Z,15.00
2017-10-15T08:30:37.930Z,13.93
2017-10-15T08:33:08.175Z,13.47
2017-10-15T08:35:37.782Z,14.90
2017-10-15T08:38:07.196Z,14.40
2017-10-15T08:40:36.617Z,13.23
2017-10-15T08:43:06.022Z,12.73
2017-10-15T08:45:35.437Z,12.50
2017-10-15T08:48:05.599Z,12.87
2017-10-15T08:50:37.313Z,13.17
2017-10-15T08:53:07.496Z,12.57
2017-10-15T08:55:36.902Z,12.80
2017-10-15T08:58:06.488Z,11.70
2017-10-15T09:00:36.226Z,12.07
2017-10-15T09:03:05.629Z,11.30
2017-10-15T09:05:34.828Z,11.87
2017-10-15T09:08:04.286Z,12.33
2017-10-15T09:10:33.668Z,11.83
2017-10-15T09:13:03.058Z,12.23
2017-10-15T09:15:34.061Z,12.23
2017-10-15T09:18:05.142Z,12.07
2017-10-15T09:20:35.211Z,11.43
2017-10-15T09:23:04.664Z,12.87
2017-10-15T09:25:34.083Z,11.70
2017-10-15T09:28:04.709Z,11.80
2017-10-15T09:30:33.907Z,10.80
2017-10-15T09:33:03.533Z,11.50
2017-10-15T09:35:33.246Z,11.00
2017-10-15T09:38:03.064Z,11.73
2017-10-15T09:40:33.522Z,11.33
2017-10-15T09:43:02.954Z,11.03
2017-10-15T09:45:32.339Z,12.33
2017-10-15T09:48:02.089Z,10.67
2017-10-15T09:50:31.588Z,11.90
2017-10-15T09:53:00.795Z,10.70
2017-10-15T09:55:30.642Z,10.60
2017-10-15T09:58:00.177Z,12.03
2017-10-15T10:00:29.549Z,11.07
2017-10-15T10:02:59.294Z,11.53
2017-10-15T10:05:28.502Z,11.97
2017-10-15T10:07:57.892Z,10.77
2017-10-15T10:10:27.648Z,11.27
2017-10-15T10:12:56.837Z,11.10
2017-10-15T10:15:26.896Z,11.20
2017-10-15T10:17:57.129Z,11.37
2017-10-15T10:20:26.530Z,11.27
2017-10-15T10:22:56.266Z,11.70
2017-10-15T10:25:25.649Z,12.13
2017-10-15T10:27:55.038Z,10.97
2017-10-15T10:30:25.493Z,10.33
2017-10-15T10:32:54.886Z,11.07
2017-10-15T10:35:24.275Z,12.03
2017-10-15T10:37:53.682Z,10.50
2017-10-15T10:40:23.076Z,10.43
2017-10-15T10:42:52.474Z,10.40
2017-10-15T10:45:21.881Z,10.40
2017-10-15T10:47:51.282Z,11.03
2017-10-15T10:50:21.898Z,10.23
2017-10-15T10:52:51.869Z,9.93
2017-10-15T10:55:21.265Z,9.93
2017-10-15T10:57:51.516Z,10.27
2017-10-15T11:00:20.769Z,9.87
2017-10-15T11:02:50.182Z,9.47
2017-10-15T11:05:19.565Z,9.87
2017-10-15T11:07:49.330Z,9.27
2017-10-15T11:10:18.715Z,9.07
2017-10-15T11:12:48.110Z,9.77
2017-10-15T11:15:18.299Z,9.10
2017-10-15T11:17:47.689Z,9.93
2017-10-15T11:20:17.130Z,9.97
2017-10-15T11:22:47.167Z,9.20
2017-10-15T11:25:17.246Z,8.53
2017-10-15T11:27:46.642Z,9.07
2017-10-15T11:30:16.417Z,9.17
2017-10-15T11:32:46.231Z,8.63
2017-10-15T11:35:16.000Z,9.03
2017-10-15T11:37:45.685Z,8.17
2017-10-15T11:40:15.071Z,8.23
2017-10-15T11:42:44.746Z,8.20
2017-10-15T11:45:16.493Z,9.00
2017-10-15T11:47:46.384Z,8.60
2017-10-15T11:50:17.524Z,8.03
2017-10-15T11:52:48.677Z,7.80
2017-10-15T11:55:18.157Z,9.03
2017-10-15T11:57:47.532Z,7.87
2017-10-15T12:00:16.901Z,8.63
2017-10-15T12:02:46.786Z,7.83
2017-10-15T12:05:16.297Z,7.23
2017-10-15T12:07:45.799Z,7.57
2017-10-15T12:10:16.286Z,7.50
2017-10-15T12:12:45.833Z,7.03
2017-10-15T12:15:16.000Z,7.33
2017-10-15T12:17:45.738Z,8.13
2017-10-15T12:20:15.133Z,7.20
2017-10-15T12:22:45.395Z,7.40
2017-10-15T12:25:14.925Z,7.47
2017-10-15T12:27:44.678Z,7.77
2017-10-15T12:30:15.199Z,8.03
2017-10-15T12:32:44.581Z,7.70
2017-10-15T12:35:13.986Z,8.30
2017-10-15T12:37:43.735Z,7.90
2017-10-15T12:40:13.145Z,8.10
2017-10-15T12:42:42.521Z,7.47
2017-10-15T12:45:12.377Z,7.87
2017-10-15T12:47:41.814Z,7.97
2017-10-15T12:50:11.211Z,6.80
2017-10-15T12:52:40.883Z,6.70
2017-10-15T12:55:10.246Z,7.43
2017-10-15T12:57:39.442Z,6.70
2017-10-15T13:00:08.926Z,7.20
2017-10-15T13:02:38.170Z,6.90
2017-10-15T13:05:07.559Z,6.83
2017-10-15T13:07:38.396Z,6.13
2017-10-15T13:10:07.790Z,6.87
2017-10-15T13:12:38.317Z,6.63
2017-10-15T13:15:07.984Z,7.40
2017-10-15T13:17:38.599Z,7.13
2017-10-15T13:20:07.796Z,7.10
2017-10-15T13:22:37.031Z,7.27
2017-10-15T13:25:06.835Z,6.33
2017-10-15T13:27:36.031Z,6.80
2017-10-15T13:30:05.108Z,6.90
2017-10-15T13:32:35.082Z,7.37
2017-10-15T13:35:04.462Z,6.73
2017-10-15T13:37:33.861Z,7.20
2017-10-15T13:40:03.305Z,6.53
2017-10-15T13:42:32.705Z,7.40
2017-10-15T13:45:02.066Z,7.17
2017-10-15T13:47:31.757Z,6.83
2017-10-15T13:50:01.143Z,6.40
2017-10-15T13:52:31.941Z,6.27
2017-10-15T13:55:01.326Z,6.27
2017-10-15T13:57:30.773Z,7.20
2017-10-15T14:00:00.397Z,6.80
2017-10-15T14:02:29.596Z,7.53
2017-10-15T14:04:58.811Z,6.70
2017-10-15T14:07:28.415Z,6.60
2017-10-15T14:09:57.862Z,6.20
2017-10-15T14:12:27.257Z,5.97
2017-10-15T14:14:57.278Z,6.27
2017-10-15T14:17:26.701Z,6.90
2017-10-15T14:19:56.086Z,5.87
2017-10-15T14:22:25.548Z,6.47
2017-10-15T14:24:54.750Z,6.50
2017-10-15T14:27:23.977Z,6.63
2017-10-15T14:29:53.597Z,6.07
2017-10-15T14:32:22.798Z,6.60
2017-10-15T14:34:52.196Z,6.73
2017-10-15T14:37:22.248Z,6.50
2017-10-15T14:39:51.649Z,6.93
2017-10-15T14:42:20.832Z,7.17
2017-10-15T14:44:50.225Z,6.97
2017-10-15T14:47:19.613Z,7.27
2017-10-15T14:49:49.769Z,6.30
2017-10-15T14:52:19.542Z,5.67
2017-10-15T14:54:48.932Z,5.87
2017-10-15T14:57:18.307Z,5.63
2017-10-15T14:59:48.815Z,6.10
2017-10-15T15:02:18.228Z,7.60
2017-10-15T15:04:47.436Z,15.37
2017-10-15T15:07:16.638Z,12.77
2017-10-15T15:09:46.190Z,8.00
2017-10-15T15:12:16.353Z,6.33
2017-10-15T15:14:46.369Z,6.43
2017-10-15T15:17:16.527Z,6.07
2017-10-15T15:19:45.914Z,6.17
2017-10-15T15:22:16.094Z,6.43
2017-10-15T15:24:45.474Z,5.93
2017-10-15T15:27:15.129Z,6.50
2017-10-15T15:29:44.321Z,6.53
2017-10-15T15:32:13.779Z,6.43
2017-10-15T15:34:43.811Z,6.20
2017-10-15T15:37:13.177Z,6.53
2017-10-15T15:39:42.554Z,6.33
2017-10-15T15:42:12.316Z,6.17
2017-10-15T15:44:41.516Z,6.50
2017-10-15T15:47:10.741Z,5.90
2017-10-15T15:49:40.282Z,6.13
2017-10-15T15:52:09.486Z,6.80
2017-10-15T15:54:38.919Z,6.23
2017-10-15T15:57:08.635Z,8.63
2017-10-15T15:59:38.030Z,6.20
2017-10-15T16:02:07.533Z,19.90
2017-10-15T16:04:37.600Z,6.50
2017-10-15T16:07:07.154Z,19.00
2017-10-15T16:09:36.575Z,8.03
2017-10-15T16:12:07.671Z,6.67
2017-10-15T16:14:36.989Z,6.40
2017-10-15T16:17:06.695Z,6.00
2017-10-15T16:19:36.443Z,6.57
2017-10-15T16:22:07.581Z,6.43
2017-10-15T16:24:37.327Z,7.00
2017-10-15T16:27:09.548Z,6.40
2017-10-15T16:29:39.317Z,7.17
2017-10-15T16:32:08.709Z,6.40
2017-10-15T16:34:38.127Z,6.43
2017-10-15T16:37:07.882Z,14.83
2017-10-15T16:39:37.298Z,9.17
2017-10-15T16:42:06.729Z,18.70
2017-10-15T16:44:36.420Z,7.10
2017-10-15T16:47:05.609Z,6.97
2017-10-15T16:49:35.021Z,7.93
2017-10-15T16:52:04.433Z,9.53
2017-10-15T16:54:33.621Z,8.37
2017-10-15T16:57:03.825Z,7.80
2017-10-15T16:59:35.126Z,7.37
2017-10-15T17:02:05.105Z,7.57
2017-10-15T17:04:35.266Z,7.53
2017-10-15T17:07:04.662Z,9.33
2017-10-15T17:09:34.041Z,7.83
2017-10-15T17:12:03.586Z,19.17
2017-10-15T17:14:33.134Z,17.33
2017-10-15T17:17:02.573Z,11.47
2017-10-15T17:19:33.484Z,9.03
2017-10-15T17:22:03.382Z,8.83
2017-10-15T17:24:32.958Z,9.63
2017-10-15T17:27:06.795Z,10.13
2017-10-15T17:29:35.954Z,11.03
2017-10-15T17:32:06.559Z,14.23
2017-10-15T17:34:36.127Z,13.37
2017-10-15T17:37:06.848Z,10.90
2017-10-15T17:39:37.905Z,9.93
2017-10-15T17:42:07.397Z,10.03
2017-10-15T17:44:36.793Z,9.70
2017-10-15T17:47:06.957Z,10.00
2017-10-15T17:49:45.492Z,10.17
2017-10-15T17:52:15.035Z,10.07
2017-10-15T17:54:44.504Z,10.53
2017-10-15T17:57:13.722Z,11.33
2017-10-15T17:59:42.872Z,10.77
2017-10-15T18:02:32.093Z,11.17
2017-10-15T18:05:03.095Z,11.50
2017-10-15T18:07:32.480Z,11.70
2017-10-15T18:10:01.977Z,11.33
2017-10-15T18:12:31.741Z,11.90
2017-10-15T18:15:01.148Z,11.57
2017-10-15T18:17:30.518Z,12.47
2017-10-15T18:20:01.812Z,11.63
2017-10-15T18:22:31.004Z,11.97
2017-10-15T18:25:00.201Z,12.17
2017-10-15T18:27:30.284Z,12.10
2017-10-15T18:29:59.476Z,12.63
2017-10-15T18:32:28.857Z,12.77
2017-10-15T18:34:59.464Z,13.73
2017-10-15T18:37:28.929Z,13.53
2017-10-15T18:39:58.528Z,13.80
2017-10-15T18:42:28.323Z,12.43
2017-10-15T18:44:58.384Z,13.10
2017-10-15T18:47:28.366Z,13.10
2017-10-15T18:49:58.143Z,13.70
2017-10-15T18:52:28.291Z,14.17
2017-10-15T18:54:57.689Z,14.23
2017-10-15T18:57:27.877Z,14.30
2017-10-15T18:59:57.269Z,15.03
2017-10-15T19:02:26.994Z,15.03
2017-10-15T19:04:57.045Z,14.90
2017-10-15T19:07:26.446Z,14.10
2017-10-15T19:09:55.820Z,15.00
2017-10-15T19:12:26.307Z,15.67
2017-10-15T19:14:55.704Z,15.20
2017-10-15T19:17:25.449Z,15.03
2017-10-15T19:19:55.133Z,16.13
2017-10-15T19:22:24.521Z,15.50
2017-10-15T19:24:54.697Z,15.77
2017-10-15T19:27:24.745Z,16.73
2017-10-15T19:29:54.525Z,16.17
2017-10-15T19:32:24.318Z,16.70
2017-10-15T19:34:53.703Z,15.67
2017-10-15T19:37:23.111Z,16.73
2017-10-15T19:39:52.522Z,16.60
2017-10-15T19:42:21.976Z,15.77
2017-10-15T19:44:51.346Z,16.13
2017-10-15T19:47:21.305Z,15.73
2017-10-15T19:49:50.699Z,14.73
2017-10-15T19:52:20.105Z,15.67
2017-10-15T19:54:50.022Z,16.40
2017-10-15T19:57:20.197Z,15.17
2017-10-15T19:59:49.612Z,15.20
2017-10-15T20:02:19.326Z,16.57
2017-10-15T20:04:48.720Z,15.67
2017-10-15T20:07:18.137Z,16.40
2017-10-15T20:09:48.046Z,15.87
2017-10-15T20:12:17.441Z,16.07
2017-10-15T20:14:47.609Z,16.43
2017-10-15T20:17:17.349Z,15.30
2017-10-15T20:19:47.395Z,15.87
2017-10-15T20:22:16.787Z,16.93
2017-10-15T20:24:46.248Z,15.50
2017-10-15T20:27:17.145Z,16.33
2017-10-15T20:29:46.988Z,16.57
2017-10-15T20:32:16.378Z,15.63
2017-10-15T20:34:45.790Z,15.70
2017-10-15T20:37:15.458Z,16.90
2017-10-15T20:39:44.857Z,16.60
2017-10-15T20:42:14.263Z,16.17
2017-10-15T20:44:43.801Z,15.83
2017-10-15T20:47:13.412Z,17.07
2017-10-15T20:49:42.817Z,16.27
2017-10-15T20:52:12.209Z,17.93
2017-10-15T20:54:41.606Z,18.03
2017-10-15T20:57:11.772Z,17.40
2017-10-15T20:59:41.506Z,16.83
2017-10-15T21:02:10.909Z,17.87
2017-10-15T21:04:40.342Z,18.33
2017-10-15T21:07:10.093Z,16.80
2017-10-15T21:09:39.738Z,17.47
2017-10-15T21:12:10.117Z,17.83
2017-10-15T21:14:39.790Z,17.87
2017-10-15T21:17:09.962Z,18.23
2017-10-15T21:19:39.377Z,18.13
2017-10-15T21:22:08.782Z,18.73
2017-10-15T21:24:38.494Z,18.50
2017-10-15T21:27:09.309Z,18.33
2017-10-15T21:29:38.747Z,19.07
2017-10-15T21:32:10.460Z,18.77
2017-10-15T21:34:40.245Z,18.97
2017-10-15T21:37:09.650Z,18.17
2017-10-15T21:39:40.141Z,19.30
2017-10-15T21:42:09.538Z,19.93
2017-10-15T21:44:39.055Z,19.30
2017-10-15T21:47:09.114Z,20.20
2017-10-15T21:49:38.504Z,19.43
2017-10-15T21:52:07.904Z,20.03
2017-10-15T21:54:37.882Z,19.27
2017-10-15T21:57:07.586Z,18.60
2017-10-15T21:59:37.023Z,18.30
2017-10-15T22:02:06.441Z,19.13
2017-10-15T22:04:35.848Z,18.93
2017-10-15T22:07:05.733Z,20.73
2017-10-15T22:09:36.619Z,19.60
2017-10-15T22:12:06.059Z,18.53
2017-10-15T22:14:35.548Z,19.50
2017-10-15T22:17:05.586Z,20.27
2017-10-15T22:19:35.429Z,19.97
2017-10-15T22:22:10.766Z,20.17
2017-10-15T22:24:40.410Z,21.50
2017-10-15T22:27:10.734Z,20.70
2017-10-15T22:29:40.425Z,19.53
2017-10-15T22:32:09.825Z,19.23
2017-10-15T22:34:39.276Z,19.83
2017-10-15T22:37:09.014Z,20.43
2017-10-15T22:39:38.516Z,20.30
2017-10-15T22:42:07.922Z,21.20
2017-10-15T22:44:37.981Z,21.97
2017-10-15T22:47:07.384Z,20.10
2017-10-15T22:49:36.617Z,19.87
2017-10-15T22:52:06.339Z,19.87
2017-10-15T22:54:35.737Z,21.20
2017-10-15T22:57:05.141Z,20.67
2017-10-15T22:59:34.866Z,21.43
2017-10-15T23:02:04.659Z,21.07
2017-10-15T23:04:33.977Z,21.60
2017-10-15T23:07:03.858Z,21.33
2017-10-15T23:09:34.109Z,22.03
2017-10-15T23:12:04.653Z,23.13
2017-10-15T23:14:34.779Z,20.23
2017-10-15T23:17:04.942Z,22.07
2017-10-15T23:19:34.346Z,22.33
2017-10-15T23:22:04.296Z,21.90
2017-10-15T23:24:33.508Z,20.80
2017-10-15T23:27:02.898Z,23.67
2017-10-15T23:29:32.418Z,22.17
2017-10-15T23:32:01.810Z,23.03
2017-10-15T23:34:31.989Z,21.60
2017-10-15T23:37:01.670Z,23.93
2017-10-15T23:39:31.376Z,22.60
2017-10-15T23:42:01.341Z,24.97
2017-10-15T23:44:31.141Z,25.77
2017-10-15T23:47:01.287Z,24.53
2017-10-15T23:49:30.684Z,25.23
2017-10-15T23:52:01.172Z,24.47
2017-10-15T23:54:30.360Z,22.23
2017-10-15T23:56:59.562Z,23.90
2017-10-15T23:59:29.118Z,24.70
